Thunder radar more information blitzortung!


Radar de pluja more information rain snow radar


Visita la nostra xarxa de llocs de meteo:

Template documentation
and downloads

And another site



No particular awareness of the weather is required.    There are no Weather-warnings

Pagina Historial Weather Underground text

Diari Resum Octubre 12, 2017 Unitats:  Tant    Imperial   Mètric
« Previous Dia
SegĂźent Dia »
Diari Setmana Mensual Anual Personalitzada
  Maxima: Minima: Media:
Temperatura: TemperatureC °F /  -17.8 °C 13.8 °F /  -10.1 °C 20.8 °F /  -6.2 °C
Punt de rosada: DewpointC °F /  -17.8 °C 12.2 °F /  -11 °C 15.7 °F /  -9.1 °C
Humitat: Humidity % 51 % 74 %
Wind Speed: WindSpeedKMH mph /  0 km/h - 5.6 mph /  9 km/h
RĂ fegues de vent: WindSpeedGustKMH mph /  0 km/h - -
Vent:- - SSW
Pression baro: PressurehPa in /  0 hPa 1022.9 in /  34635.4 hPa -
Precipitacions: 0.0 in /  0 mm    
Historical Graphs
 
 
Dades de taula per Octubre 12, 2017
Temps Temperatura Punt de rosada Pression baro Vent Wind Speed RĂ fegues de vent Humitat Rainfall Rate (Hourly)
TemperatureC °F /  -17.8 °C DewpointC °F /  -17.8 °C PressurehPa in /  0 hPa Calm     Humidity % HourlyPrecipMM in /  0 mm
00:00 15.0 °F /  -9.4 °C 13.4 °F /  -10.3 °C 1023.9 in /  34669.3 hPa Calm   1.6 mph /  2.6 km/h 90 % 0.0 in /  0 mm
00:02 18.4 °F /  -7.6 °C 15.7 °F /  -9.1 °C 1023.9 in /  34669.3 hPa West 1.9 mph /  3.1 km/h   84 % 0.0 in /  0 mm
00:07 18.4 °F /  -7.6 °C 15.7 °F /  -9.1 °C 1023.9 in /  34669.3 hPa West 1.9 mph /  3.1 km/h 2.3 mph /  3.7 km/h 84 % 0.0 in /  0 mm
00:10 14.9 °F /  -9.5 °C 13.3 °F /  -10.4 °C 1023.9 in /  34669.3 hPa Calm   1.6 mph /  2.6 km/h 90 % 0.0 in /  0 mm
00:12 18.4 °F /  -7.6 °C 15.8 °F /  -9 °C 1023.9 in /  34669.3 hPa West 2.6 mph /  4.2 km/h 2.6 mph /  4.2 km/h 85 % 0.0 in /  0 mm
00:20 14.7 °F /  -9.6 °C 13.1 °F /  -10.5 °C 1023.9 in /  34669.3 hPa Calm   1.6 mph /  2.6 km/h 90 % 0.0 in /  0 mm
00:30 14.6 °F /  -9.7 °C 13.0 °F /  -10.6 °C 1023.9 in /  34669.3 hPa SW 3.2 mph /  5.1 km/h 3.2 mph /  5.1 km/h 90 % 0.0 in /  0 mm
00:40 14.4 °F /  -9.8 °C 12.6 °F /  -10.8 °C 1023.9 in /  34669.3 hPa SW 3.2 mph /  5.1 km/h 4.8 mph /  7.7 km/h 89 % 0.0 in /  0 mm
00:50 14.2 °F /  -9.9 °C 12.4 °F /  -10.9 °C 1023.9 in /  34669.3 hPa SW 1.6 mph /  2.6 km/h 3.2 mph /  5.1 km/h 89 % 0.0 in /  0 mm
01:00 14.1 °F /  -9.9 °C 12.5 °F /  -10.8 °C 1023.9 in /  34669.3 hPa Calm   3.2 mph /  5.1 km/h 90 % 0.0 in /  0 mm
01:10 14.1 °F /  -9.9 °C 12.5 °F /  -10.8 °C 1023.9 in /  34669.3 hPa Calm   3.2 mph /  5.1 km/h 90 % 0.0 in /  0 mm
01:20 14.1 °F /  -9.9 °C 12.5 °F /  -10.8 °C 1023.9 in /  34669.3 hPa SW 3.2 mph /  5.1 km/h 3.2 mph /  5.1 km/h 90 % 0.0 in /  0 mm
01:30 14.1 °F /  -9.9 °C 12.5 °F /  -10.8 °C 1023.9 in /  34669.3 hPa SW 1.6 mph /  2.6 km/h 3.2 mph /  5.1 km/h 90 % 0.0 in /  0 mm
01:40 14.1 °F /  -9.9 °C 12.5 °F /  -10.8 °C 1023.9 in /  34669.3 hPa WSW 3.2 mph /  5.1 km/h 3.2 mph /  5.1 km/h 90 % 0.0 in /  0 mm
01:50 14.2 °F /  -9.9 °C 12.6 °F /  -10.8 °C 1023.9 in /  34669.3 hPa WSW 1.6 mph /  2.6 km/h 3.2 mph /  5.1 km/h 90 % 0.0 in /  0 mm
02:00 14.1 °F /  -9.9 °C 12.5 °F /  -10.8 °C 1024.9 in /  34703.1 hPa WSW 3.2 mph /  5.1 km/h 3.2 mph /  5.1 km/h 90 % 0.0 in /  0 mm
02:10 13.9 °F /  -10.1 °C 12.3 °F /  -10.9 °C 1024.9 in /  34703.1 hPa SW 3.2 mph /  5.1 km/h 3.2 mph /  5.1 km/h 90 % 0.0 in /  0 mm
02:20 13.8 °F /  -10.1 °C 12.2 °F /  -11 °C 1024.9 in /  34703.1 hPa WSW 1.6 mph /  2.6 km/h 3.2 mph /  5.1 km/h 90 % 0.0 in /  0 mm
02:30 13.9 °F /  -10.1 °C 12.4 °F /  -10.9 °C 1026.0 in /  34740.4 hPa SW 1.6 mph /  2.6 km/h 4.8 mph /  7.7 km/h 91 % 0.0 in /  0 mm
02:50 14.2 °F /  -9.9 °C 12.9 °F /  -10.6 °C 1026.0 in /  34740.4 hPa Calm   3.2 mph /  5.1 km/h 92 % 0.0 in /  0 mm
03:00 14.1 °F /  -9.9 °C 12.8 °F /  -10.7 °C 1026.0 in /  34740.4 hPa Calm   1.6 mph /  2.6 km/h 92 % 0.0 in /  0 mm
03:10 14.1 °F /  -9.9 °C 12.8 °F /  -10.7 °C 1026.0 in /  34740.4 hPa Calm     92 % 0.0 in /  0 mm
03:20 14.0 °F /  -10 °C 12.7 °F /  -10.7 °C 1026.0 in /  34740.4 hPa Calm     92 % 0.0 in /  0 mm
03:30 14.1 °F /  -9.9 °C 12.8 °F /  -10.7 °C 1026.0 in /  34740.4 hPa Calm     92 % 0.0 in /  0 mm
03:40 14.2 °F /  -9.9 °C 13.1 °F /  -10.5 °C 1026.0 in /  34740.4 hPa Calm     93 % 0.0 in /  0 mm
03:50 14.3 °F /  -9.8 °C 13.0 °F /  -10.6 °C 1026.0 in /  34740.4 hPa Calm     92 % 0.0 in /  0 mm
04:00 14.4 °F /  -9.8 °C 13.3 °F /  -10.4 °C 1026.0 in /  34740.4 hPa Calm     93 % 0.0 in /  0 mm
04:10 14.9 °F /  -9.5 °C 13.8 °F /  -10.1 °C 1026.0 in /  34740.4 hPa WSW 1.6 mph /  2.6 km/h 1.6 mph /  2.6 km/h 93 % 0.0 in /  0 mm
04:20 15.2 °F /  -9.3 °C 14.1 °F /  -9.9 °C 1026.0 in /  34740.4 hPa WSW 1.6 mph /  2.6 km/h 3.2 mph /  5.1 km/h 93 % 0.0 in /  0 mm
04:30 15.5 °F /  -9.2 °C 14.4 °F /  -9.8 °C 1026.0 in /  34740.4 hPa Calm   1.6 mph /  2.6 km/h 93 % 0.0 in /  0 mm
04:40 16.0 °F /  -8.9 °C 14.9 °F /  -9.5 °C 1026.0 in /  34740.4 hPa SW 3.2 mph /  5.1 km/h 3.2 mph /  5.1 km/h 93 % 0.0 in /  0 mm
04:50 16.1 °F /  -8.8 °C 14.9 °F /  -9.5 °C 1026.0 in /  34740.4 hPa Calm   3.2 mph /  5.1 km/h 93 % 0.0 in /  0 mm
05:00 16.4 °F /  -8.7 °C 15.3 °F /  -9.3 °C 1026.0 in /  34740.4 hPa Calm     93 % 0.0 in /  0 mm
05:10 16.6 °F /  -8.6 °C 15.4 °F /  -9.2 °C 1026.0 in /  34740.4 hPa South 1.6 mph /  2.6 km/h 3.2 mph /  5.1 km/h 93 % 0.0 in /  0 mm
05:20 16.8 °F /  -8.4 °C 15.5 °F /  -9.2 °C 1027.0 in /  34774.2 hPa North 1.6 mph /  2.6 km/h 3.2 mph /  5.1 km/h 92 % 0.0 in /  0 mm
05:30 17.2 °F /  -8.2 °C 15.7 °F /  -9.1 °C 1027.0 in /  34774.2 hPa NNW 1.6 mph /  2.6 km/h 3.2 mph /  5.1 km/h 91 % 0.0 in /  0 mm
05:40 17.4 °F /  -8.1 °C 15.7 °F /  -9.1 °C 1027.0 in /  34774.2 hPa SSW 3.2 mph /  5.1 km/h 4.8 mph /  7.7 km/h 90 % 0.0 in /  0 mm
05:50 17.9 °F /  -7.8 °C 15.9 °F /  -8.9 °C 1027.0 in /  34774.2 hPa NE 1.6 mph /  2.6 km/h 3.2 mph /  5.1 km/h 88 % 0.0 in /  0 mm
06:00 18.4 °F /  -7.6 °C 16.0 °F /  -8.9 °C 1027.0 in /  34774.2 hPa Calm   1.6 mph /  2.6 km/h 86 % 0.0 in /  0 mm
11:01 18.6 °F /  -7.4 °C 16.2 °F /  -8.8 °C 1027.0 in /  34774.2 hPa NNW 1.9 mph /  3.1 km/h   86 % 0.0 in /  0 mm
11:06 18.6 °F /  -7.4 °C 16.0 °F /  -8.9 °C 1027.0 in /  34774.2 hPa NNE 2.3 mph /  3.7 km/h 2.3 mph /  3.7 km/h 85 % 0.0 in /  0 mm
11:11 18.7 °F /  -7.4 °C 15.9 °F /  -8.9 °C 1027.0 in /  34774.2 hPa South 1.9 mph /  3.1 km/h   84 % 0.0 in /  0 mm
11:16 19.0 °F /  -7.2 °C 16.1 °F /  -8.8 °C 1027.0 in /  34774.2 hPa SW 3.7 mph /  6 km/h 3.7 mph /  6 km/h 83 % 0.0 in /  0 mm
11:21 19.1 °F /  -7.2 °C 16.2 °F /  -8.8 °C 1027.0 in /  34774.2 hPa South 3.7 mph /  6 km/h 3.7 mph /  6 km/h 83 % 0.0 in /  0 mm
11:31 19.2 °F /  -7.1 °C 16.1 °F /  -8.8 °C 1027.0 in /  34774.2 hPa ESE 1.9 mph /  3.1 km/h 1.9 mph /  3.1 km/h 82 % 0.0 in /  0 mm
11:36 19.5 °F /  -6.9 °C 16.3 °F /  -8.7 °C 1027.0 in /  34774.2 hPa SE 2.6 mph /  4.2 km/h 2.6 mph /  4.2 km/h 82 % 0.0 in /  0 mm
11:41 19.9 °F /  -6.7 °C 16.7 °F /  -8.5 °C 1027.0 in /  34774.2 hPa WNW 3.7 mph /  6 km/h 3.7 mph /  6 km/h 82 % 0.0 in /  0 mm
11:46 20.0 °F /  -6.7 °C 16.6 °F /  -8.6 °C 1027.0 in /  34774.2 hPa NNE 3.7 mph /  6 km/h 3.7 mph /  6 km/h 81 % 0.0 in /  0 mm
11:47 20.1 °F /  -6.6 °C 16.6 °F /  -8.6 °C 1027.0 in /  34774.2 hPa NNE 1.9 mph /  3.1 km/h   80 % 0.0 in /  0 mm
11:57 20.3 °F /  -6.5 °C 16.6 °F /  -8.6 °C 1027.0 in /  34774.2 hPa NNW 1.9 mph /  3.1 km/h   79 % 0.0 in /  0 mm
12:02 20.7 °F /  -6.3 °C 16.7 °F /  -8.5 °C 1027.0 in /  34774.2 hPa NE 1.9 mph /  3.1 km/h   78 % 0.0 in /  0 mm
12:07 20.8 °F /  -6.2 °C 16.6 °F /  -8.6 °C 1027.0 in /  34774.2 hPa SE 5.6 mph /  9 km/h 5.6 mph /  9 km/h 77 % 0.0 in /  0 mm
12:12 21.0 °F /  -6.1 °C 16.6 °F /  -8.6 °C 1027.0 in /  34774.2 hPa ESE 3.7 mph /  6 km/h 3.7 mph /  6 km/h 76 % 0.0 in /  0 mm
12:17 21.7 °F /  -5.7 °C 17.3 °F /  -8.2 °C 1027.0 in /  34774.2 hPa ESE 3.9 mph /  6.3 km/h 3.9 mph /  6.3 km/h 76 % 0.0 in /  0 mm
12:22 22.0 °F /  -5.6 °C 17.4 °F /  -8.1 °C 1027.0 in /  34774.2 hPa East 3.5 mph /  5.6 km/h 3.5 mph /  5.6 km/h 75 % 0.0 in /  0 mm
12:27 22.2 °F /  -5.4 °C 17.3 °F /  -8.2 °C 1027.0 in /  34774.2 hPa NNE 5.8 mph /  9.3 km/h 5.8 mph /  9.3 km/h 74 % 0.0 in /  0 mm
12:32 22.0 °F /  -5.6 °C 16.7 °F /  -8.5 °C 1027.0 in /  34774.2 hPa ENE 5.6 mph /  9 km/h 5.6 mph /  9 km/h 72 % 0.0 in /  0 mm
12:37 22.3 °F /  -5.4 °C 17.2 °F /  -8.2 °C 1027.0 in /  34774.2 hPa ENE 6.1 mph /  9.8 km/h 6.1 mph /  9.8 km/h 73 % 0.0 in /  0 mm
12:42 22.6 °F /  -5.2 °C 17.5 °F /  -8.1 °C 1027.0 in /  34774.2 hPa ENE 5.8 mph /  9.3 km/h 5.8 mph /  9.3 km/h 73 % 0.0 in /  0 mm
12:44 22.5 °F /  -5.3 °C 17.2 °F /  -8.2 °C 1027.0 in /  34774.2 hPa NNE 5.6 mph /  9 km/h 5.6 mph /  9 km/h 72 % 0.0 in /  0 mm
12:49 22.4 °F /  -5.3 °C 17.1 °F /  -8.3 °C 1027.0 in /  34774.2 hPa NE 7.4 mph /  11.9 km/h 7.4 mph /  11.9 km/h 72 % 0.0 in /  0 mm
12:54 22.4 °F /  -5.3 °C 17.1 °F /  -8.3 °C 1027.0 in /  34774.2 hPa WNW 1.9 mph /  3.1 km/h 1.9 mph /  3.1 km/h 72 % 0.0 in /  0 mm
12:59 22.7 °F /  -5.2 °C 17.4 °F /  -8.1 °C 1027.0 in /  34774.2 hPa NW 3.7 mph /  6 km/h 3.7 mph /  6 km/h 72 % 0.0 in /  0 mm
13:04 23.1 °F /  -4.9 °C 17.3 °F /  -8.2 °C 1027.0 in /  34774.2 hPa ESE 3.7 mph /  6 km/h 3.7 mph /  6 km/h 70 % 0.0 in /  0 mm
13:09 23.3 °F /  -4.8 °C 17.3 °F /  -8.2 °C 1027.0 in /  34774.2 hPa SE 5.6 mph /  9 km/h 5.6 mph /  9 km/h 69 % 0.0 in /  0 mm
13:14 23.2 °F /  -4.9 °C 16.7 °F /  -8.5 °C 1027.0 in /  34774.2 hPa SW 5.6 mph /  9 km/h 5.6 mph /  9 km/h 67 % 0.0 in /  0 mm
13:19 23.4 °F /  -4.8 °C 17.4 °F /  -8.1 °C 1027.0 in /  34774.2 hPa NE 5.6 mph /  9 km/h 5.6 mph /  9 km/h 69 % 0.0 in /  0 mm
13:24 23.0 °F /  -5 °C 16.6 °F /  -8.6 °C 1027.0 in /  34774.2 hPa SE 5.6 mph /  9 km/h 5.6 mph /  9 km/h 67 % 0.0 in /  0 mm
13:29 23.7 °F /  -4.6 °C 17.4 °F /  -8.1 °C 1026.0 in /  34740.4 hPa ESE 6.4 mph /  10.3 km/h 6.4 mph /  10.3 km/h 68 % 0.0 in /  0 mm
13:34 23.3 °F /  -4.8 °C 16.6 °F /  -8.6 °C 1026.0 in /  34740.4 hPa SE 9.0 mph /  14.5 km/h 9.0 mph /  14.5 km/h 66 % 0.0 in /  0 mm
13:39 23.3 °F /  -4.8 °C 16.8 °F /  -8.4 °C 1026.0 in /  34740.4 hPa ENE 5.6 mph /  9 km/h 5.6 mph /  9 km/h 67 % 0.0 in /  0 mm
13:44 23.6 °F /  -4.7 °C 17.3 °F /  -8.2 °C 1024.9 in /  34703.1 hPa WNW 3.7 mph /  6 km/h 3.7 mph /  6 km/h 68 % 0.0 in /  0 mm
13:49 23.9 °F /  -4.5 °C 17.4 °F /  -8.1 °C 1024.9 in /  34703.1 hPa SW 3.7 mph /  6 km/h 3.7 mph /  6 km/h 67 % 0.0 in /  0 mm
13:54 23.9 °F /  -4.5 °C 16.7 °F /  -8.5 °C 1024.9 in /  34703.1 hPa ESE 7.4 mph /  11.9 km/h 7.4 mph /  11.9 km/h 64 % 0.0 in /  0 mm
13:59 24.0 °F /  -4.4 °C 16.8 °F /  -8.4 °C 1024.9 in /  34703.1 hPa ENE 9.3 mph /  15 km/h 9.3 mph /  15 km/h 64 % 0.0 in /  0 mm
14:04 24.5 °F /  -4.2 °C 17.5 °F /  -8.1 °C 1024.9 in /  34703.1 hPa SSW 1.9 mph /  3.1 km/h 2.3 mph /  3.7 km/h 65 % 0.0 in /  0 mm
14:09 24.6 °F /  -4.1 °C 17.6 °F /  -8 °C 1024.9 in /  34703.1 hPa SE 5.6 mph /  9 km/h 5.6 mph /  9 km/h 65 % 0.0 in /  0 mm
14:14 24.9 °F /  -3.9 °C 17.6 °F /  -8 °C 1026.0 in /  34740.4 hPa SSW 11.1 mph /  17.9 km/h 11.1 mph /  17.9 km/h 64 % 0.0 in /  0 mm
14:19 25.4 °F /  -3.7 °C 17.6 °F /  -8 °C 1026.0 in /  34740.4 hPa SW 7.4 mph /  11.9 km/h 7.4 mph /  11.9 km/h 62 % 0.0 in /  0 mm
14:24 25.6 °F /  -3.6 °C 17.5 °F /  -8.1 °C 1026.0 in /  34740.4 hPa SW 9.3 mph /  15 km/h 9.3 mph /  15 km/h 61 % 0.0 in /  0 mm
14:29 25.9 °F /  -3.4 °C 17.6 °F /  -8 °C 1026.0 in /  34740.4 hPa SSE 3.7 mph /  6 km/h 3.7 mph /  6 km/h 60 % 0.0 in /  0 mm
14:34 25.4 °F /  -3.7 °C 16.8 °F /  -8.4 °C 1026.0 in /  34740.4 hPa South 9.3 mph /  15 km/h 9.3 mph /  15 km/h 59 % 0.0 in /  0 mm
14:39 25.6 °F /  -3.6 °C 17.0 °F /  -8.3 °C 1026.0 in /  34740.4 hPa SSE 9.3 mph /  15 km/h 9.3 mph /  15 km/h 59 % 0.0 in /  0 mm
14:44 25.8 °F /  -3.4 °C 17.4 °F /  -8.1 °C 1026.0 in /  34740.4 hPa WSW 9.7 mph /  15.6 km/h 10.3 mph /  16.6 km/h 60 % 0.0 in /  0 mm
14:49 25.6 °F /  -3.6 °C 17.0 °F /  -8.3 °C 1026.0 in /  34740.4 hPa SE 11.1 mph /  17.9 km/h 11.1 mph /  17.9 km/h 59 % 0.0 in /  0 mm
14:54 25.7 °F /  -3.5 °C 16.8 °F /  -8.4 °C 1026.0 in /  34740.4 hPa SW 9.3 mph /  15 km/h 9.3 mph /  15 km/h 58 % 0.0 in /  0 mm
14:59 25.8 °F /  -3.4 °C 16.9 °F /  -8.4 °C 1024.9 in /  34703.1 hPa SSE 12.6 mph /  20.3 km/h 12.6 mph /  20.3 km/h 58 % 0.0 in /  0 mm
15:04 25.5 °F /  -3.6 °C 16.1 °F /  -8.8 °C 1024.9 in /  34703.1 hPa North 5.6 mph /  9 km/h 5.6 mph /  9 km/h 56 % 0.0 in /  0 mm
15:09 25.9 °F /  -3.4 °C 16.7 °F /  -8.5 °C 1024.9 in /  34703.1 hPa SW 7.4 mph /  11.9 km/h 7.4 mph /  11.9 km/h 57 % 0.0 in /  0 mm
15:19 26.2 °F /  -3.2 °C 16.7 °F /  -8.5 °C 1024.9 in /  34703.1 hPa WSW 6.1 mph /  9.8 km/h 6.1 mph /  9.8 km/h 56 % 0.0 in /  0 mm
15:24 26.4 °F /  -3.1 °C 16.9 °F /  -8.4 °C 1024.9 in /  34703.1 hPa SSW 12.2 mph /  19.6 km/h 12.2 mph /  19.6 km/h 56 % 0.0 in /  0 mm
15:29 26.4 °F /  -3.1 °C 16.6 °F /  -8.6 °C 1024.9 in /  34703.1 hPa SW 7.4 mph /  11.9 km/h 7.4 mph /  11.9 km/h 55 % 0.0 in /  0 mm
15:34 26.5 °F /  -3.1 °C 16.7 °F /  -8.5 °C 1024.9 in /  34703.1 hPa WSW 5.6 mph /  9 km/h 5.6 mph /  9 km/h 55 % 0.0 in /  0 mm
15:39 26.5 °F /  -3.1 °C 16.7 °F /  -8.5 °C 1024.9 in /  34703.1 hPa SSW 5.6 mph /  9 km/h 5.6 mph /  9 km/h 55 % 0.0 in /  0 mm
15:44 26.5 °F /  -3.1 °C 16.2 °F /  -8.8 °C 1023.9 in /  34669.3 hPa SSE 10.0 mph /  16.1 km/h 10.0 mph /  16.1 km/h 53 % 0.0 in /  0 mm
15:49 26.7 °F /  -2.9 °C 16.9 °F /  -8.4 °C 1023.9 in /  34669.3 hPa SW 6.4 mph /  10.3 km/h 6.4 mph /  10.3 km/h 55 % 0.0 in /  0 mm
15:54 26.8 °F /  -2.9 °C 17.0 °F /  -8.3 °C 1023.9 in /  34669.3 hPa West 7.4 mph /  11.9 km/h 7.4 mph /  11.9 km/h 55 % 0.0 in /  0 mm
15:59 26.8 °F /  -2.9 °C 16.7 °F /  -8.5 °C 1023.9 in /  34669.3 hPa West 9.3 mph /  15 km/h 9.3 mph /  15 km/h 54 % 0.0 in /  0 mm
16:04 26.9 °F /  -2.8 °C 16.8 °F /  -8.4 °C 1023.9 in /  34669.3 hPa South 9.3 mph /  15 km/h 9.3 mph /  15 km/h 54 % 0.0 in /  0 mm
16:09 27.3 °F /  -2.6 °C 16.6 °F /  -8.6 °C 1023.9 in /  34669.3 hPa SW 12.6 mph /  20.3 km/h 12.6 mph /  20.3 km/h 52 % 0.0 in /  0 mm
16:14 26.9 °F /  -2.8 °C 16.5 °F /  -8.6 °C 1023.9 in /  34669.3 hPa South 9.3 mph /  15 km/h 9.3 mph /  15 km/h 53 % 0.0 in /  0 mm
16:19 27.1 °F /  -2.7 °C 16.4 °F /  -8.7 °C 1023.9 in /  34669.3 hPa SW 7.4 mph /  11.9 km/h 7.4 mph /  11.9 km/h 52 % 0.0 in /  0 mm
16:24 26.8 °F /  -2.9 °C 16.4 °F /  -8.7 °C 1023.9 in /  34669.3 hPa SW 9.3 mph /  15 km/h 9.3 mph /  15 km/h 53 % 0.0 in /  0 mm
16:29 26.6 °F /  -3 °C 15.9 °F /  -8.9 °C 1022.9 in /  34635.4 hPa SW 11.1 mph /  17.9 km/h 11.1 mph /  17.9 km/h 52 % 0.0 in /  0 mm
16:34 26.7 °F /  -2.9 °C 16.0 °F /  -8.9 °C 1022.9 in /  34635.4 hPa SSW 3.7 mph /  6 km/h 4.7 mph /  7.6 km/h 52 % 0.0 in /  0 mm
16:39 27.0 °F /  -2.8 °C 16.0 °F /  -8.9 °C 1022.9 in /  34635.4 hPa SSW 5.8 mph /  9.3 km/h 5.8 mph /  9.3 km/h 51 % 0.0 in /  0 mm
16:44 26.8 °F /  -2.9 °C 16.1 °F /  -8.8 °C 1023.9 in /  34669.3 hPa SW 9.3 mph /  15 km/h 9.3 mph /  15 km/h 52 % 0.0 in /  0 mm
16:49 26.6 °F /  -3 °C 15.9 °F /  -8.9 °C 1023.9 in /  34669.3 hPa South 9.3 mph /  15 km/h 9.3 mph /  15 km/h 52 % 0.0 in /  0 mm
16:59 26.8 °F /  -2.9 °C 16.4 °F /  -8.7 °C 1023.9 in /  34669.3 hPa WSW 9.3 mph /  15 km/h 9.3 mph /  15 km/h 53 % 0.0 in /  0 mm
17:09 25.9 °F /  -3.4 °C 15.6 °F /  -9.1 °C 1023.9 in /  34669.3 hPa SW 14.8 mph /  23.8 km/h 14.8 mph /  23.8 km/h 53 % 0.0 in /  0 mm
17:19 25.7 °F /  -3.5 °C 15.7 °F /  -9.1 °C 1023.9 in /  34669.3 hPa SSW 9.3 mph /  15 km/h 9.3 mph /  15 km/h 54 % 0.0 in /  0 mm
17:24 25.6 °F /  -3.6 °C 15.6 °F /  -9.1 °C 1023.9 in /  34669.3 hPa WSW 11.1 mph /  17.9 km/h 11.1 mph /  17.9 km/h 54 % 0.0 in /  0 mm
17:29 25.4 °F /  -3.7 °C 15.7 °F /  -9.1 °C 1023.9 in /  34669.3 hPa SSW 11.1 mph /  17.9 km/h 11.1 mph /  17.9 km/h 55 % 0.0 in /  0 mm
17:34 25.1 °F /  -3.8 °C 15.4 °F /  -9.2 °C 1023.9 in /  34669.3 hPa SW 12.6 mph /  20.3 km/h 12.6 mph /  20.3 km/h 55 % 0.0 in /  0 mm
17:39 25.0 °F /  -3.9 °C 15.3 °F /  -9.3 °C 1023.9 in /  34669.3 hPa SW 11.9 mph /  19.2 km/h 11.9 mph /  19.2 km/h 55 % 0.0 in /  0 mm
17:44 24.7 °F /  -4.1 °C 15.6 °F /  -9.1 °C 1023.9 in /  34669.3 hPa SSW 13.0 mph /  20.9 km/h 13.0 mph /  20.9 km/h 57 % 0.0 in /  0 mm
17:49 24.6 °F /  -4.1 °C 15.5 °F /  -9.2 °C 1023.9 in /  34669.3 hPa SW 12.6 mph /  20.3 km/h 12.6 mph /  20.3 km/h 57 % 0.0 in /  0 mm
17:54 24.5 °F /  -4.2 °C 15.7 °F /  -9.1 °C 1023.9 in /  34669.3 hPa SW 11.1 mph /  17.9 km/h 11.1 mph /  17.9 km/h 58 % 0.0 in /  0 mm
17:59 24.3 °F /  -4.3 °C 15.5 °F /  -9.2 °C 1023.9 in /  34669.3 hPa WSW 11.1 mph /  17.9 km/h 11.1 mph /  17.9 km/h 58 % 0.0 in /  0 mm
18:04 24.4 °F /  -4.2 °C 15.9 °F /  -8.9 °C 1023.9 in /  34669.3 hPa SSW 13.0 mph /  20.9 km/h 13.0 mph /  20.9 km/h 59 % 0.0 in /  0 mm
18:09 24.2 °F /  -4.3 °C 15.7 °F /  -9.1 °C 1023.9 in /  34669.3 hPa SW 13.0 mph /  20.9 km/h 13.0 mph /  20.9 km/h 59 % 0.0 in /  0 mm
18:14 23.9 °F /  -4.5 °C 15.7 °F /  -9.1 °C 1023.9 in /  34669.3 hPa West 9.3 mph /  15 km/h 9.3 mph /  15 km/h 60 % 0.0 in /  0 mm
18:19 23.8 °F /  -4.6 °C 15.8 °F /  -9 °C 1023.9 in /  34669.3 hPa WSW 15.6 mph /  25.1 km/h 15.6 mph /  25.1 km/h 61 % 0.0 in /  0 mm
18:24 23.6 °F /  -4.7 °C 15.6 °F /  -9.1 °C 1023.9 in /  34669.3 hPa SW 9.3 mph /  15 km/h 9.3 mph /  15 km/h 61 % 0.0 in /  0 mm
18:26 23.6 °F /  -4.7 °C 15.6 °F /  -9.1 °C 1023.9 in /  34669.3 hPa SW 9.3 mph /  15 km/h 9.3 mph /  15 km/h 61 % 0.0 in /  0 mm
18:31 23.5 °F /  -4.7 °C 15.8 °F /  -9 °C 1023.9 in /  34669.3 hPa WSW 11.1 mph /  17.9 km/h 11.1 mph /  17.9 km/h 62 % 0.0 in /  0 mm
18:36 23.3 °F /  -4.8 °C 15.8 °F /  -9 °C 1023.9 in /  34669.3 hPa SW 11.1 mph /  17.9 km/h 11.1 mph /  17.9 km/h 63 % 0.0 in /  0 mm
18:41 23.2 °F /  -4.9 °C 15.8 °F /  -9 °C 1023.9 in /  34669.3 hPa SW 13.0 mph /  20.9 km/h 13.0 mph /  20.9 km/h 63 % 0.0 in /  0 mm
18:46 23.0 °F /  -5 °C 15.8 °F /  -9 °C 1023.9 in /  34669.3 hPa SSW 9.3 mph /  15 km/h 9.5 mph /  15.3 km/h 64 % 0.0 in /  0 mm
18:51 22.8 °F /  -5.1 °C 15.6 °F /  -9.1 °C 1023.9 in /  34669.3 hPa SSE 7.4 mph /  11.9 km/h 7.4 mph /  11.9 km/h 64 % 0.0 in /  0 mm
18:56 22.6 °F /  -5.2 °C 15.7 °F /  -9.1 °C 1023.9 in /  34669.3 hPa SSW 7.4 mph /  11.9 km/h 7.4 mph /  11.9 km/h 65 % 0.0 in /  0 mm
19:01 22.4 °F /  -5.3 °C 15.5 °F /  -9.2 °C 1024.9 in /  34703.1 hPa WSW 6.4 mph /  10.3 km/h 6.4 mph /  10.3 km/h 65 % 0.0 in /  0 mm
19:06 22.3 °F /  -5.4 °C 15.7 °F /  -9.1 °C 1024.9 in /  34703.1 hPa West 5.8 mph /  9.3 km/h 5.8 mph /  9.3 km/h 66 % 0.0 in /  0 mm
19:11 22.1 °F /  -5.5 °C 15.4 °F /  -9.2 °C 1024.9 in /  34703.1 hPa SW 9.3 mph /  15 km/h 9.3 mph /  15 km/h 66 % 0.0 in /  0 mm
19:16 22.0 °F /  -5.6 °C 15.6 °F /  -9.1 °C 1023.9 in /  34669.3 hPa SW 7.6 mph /  12.2 km/h 7.6 mph /  12.2 km/h 67 % 0.0 in /  0 mm
19:21 21.8 °F /  -5.7 °C 15.6 °F /  -9.1 °C 1023.9 in /  34669.3 hPa SW 7.4 mph /  11.9 km/h 7.4 mph /  11.9 km/h 68 % 0.0 in /  0 mm
19:26 21.7 °F /  -5.7 °C 15.8 °F /  -9 °C 1023.9 in /  34669.3 hPa SSW 14.8 mph /  23.8 km/h 14.8 mph /  23.8 km/h 69 % 0.0 in /  0 mm
19:31 21.5 °F /  -5.8 °C 15.8 °F /  -9 °C 1024.9 in /  34703.1 hPa SW 9.3 mph /  15 km/h 9.3 mph /  15 km/h 70 % 0.0 in /  0 mm
19:36 21.4 °F /  -5.9 °C 15.7 °F /  -9.1 °C 1024.9 in /  34703.1 hPa SW 9.3 mph /  15 km/h 9.3 mph /  15 km/h 70 % 0.0 in /  0 mm
19:41 21.3 °F /  -5.9 °C 15.8 °F /  -9 °C 1024.9 in /  34703.1 hPa SW 11.1 mph /  17.9 km/h 11.1 mph /  17.9 km/h 71 % 0.0 in /  0 mm
19:46 21.1 °F /  -6.1 °C 15.6 °F /  -9.1 °C 1023.9 in /  34669.3 hPa WSW 9.3 mph /  15 km/h 9.3 mph /  15 km/h 71 % 0.0 in /  0 mm
19:51 21.0 °F /  -6.1 °C 15.8 °F /  -9 °C 1023.9 in /  34669.3 hPa SW 9.3 mph /  15 km/h 9.3 mph /  15 km/h 72 % 0.0 in /  0 mm
19:56 20.9 °F /  -6.2 °C 15.9 °F /  -8.9 °C 1023.9 in /  34669.3 hPa SW 13.0 mph /  20.9 km/h 13.0 mph /  20.9 km/h 73 % 0.0 in /  0 mm
20:01 20.8 °F /  -6.2 °C 15.8 °F /  -9 °C 1024.9 in /  34703.1 hPa SW 9.3 mph /  15 km/h 9.3 mph /  15 km/h 73 % 0.0 in /  0 mm
20:06 20.8 °F /  -6.2 °C 16.0 °F /  -8.9 °C 1024.9 in /  34703.1 hPa SW 9.3 mph /  15 km/h 9.3 mph /  15 km/h 74 % 0.0 in /  0 mm
20:11 20.7 °F /  -6.3 °C 15.9 °F /  -8.9 °C 1024.9 in /  34703.1 hPa SW 9.3 mph /  15 km/h 9.3 mph /  15 km/h 74 % 0.0 in /  0 mm
20:16 20.6 °F /  -6.3 °C 16.0 °F /  -8.9 °C 1024.9 in /  34703.1 hPa West 9.3 mph /  15 km/h 9.3 mph /  15 km/h 75 % 0.0 in /  0 mm
20:21 20.6 °F /  -6.3 °C 16.0 °F /  -8.9 °C 1024.9 in /  34703.1 hPa SSW 7.4 mph /  11.9 km/h 7.4 mph /  11.9 km/h 75 % 0.0 in /  0 mm
20:26 20.5 °F /  -6.4 °C 16.1 °F /  -8.8 °C 1024.9 in /  34703.1 hPa West 7.9 mph /  12.7 km/h 7.9 mph /  12.7 km/h 76 % 0.0 in /  0 mm
20:31 20.4 °F /  -6.4 °C 16.0 °F /  -8.9 °C 1026.0 in /  34740.4 hPa WSW 9.3 mph /  15 km/h 9.3 mph /  15 km/h 76 % 0.0 in /  0 mm
20:36 20.4 °F /  -6.4 °C 16.2 °F /  -8.8 °C 1026.0 in /  34740.4 hPa West 4.2 mph /  6.8 km/h 4.2 mph /  6.8 km/h 77 % 0.0 in /  0 mm
20:41 20.3 °F /  -6.5 °C 16.1 °F /  -8.8 °C 1026.0 in /  34740.4 hPa WSW 5.6 mph /  9 km/h 5.6 mph /  9 km/h 77 % 0.0 in /  0 mm
20:46 20.2 °F /  -6.6 °C 16.1 °F /  -8.8 °C 1026.0 in /  34740.4 hPa WSW 5.6 mph /  9 km/h 5.6 mph /  9 km/h 77 % 0.0 in /  0 mm
20:51 20.2 °F /  -6.6 °C 16.1 °F /  -8.8 °C 1026.0 in /  34740.4 hPa SW 7.4 mph /  11.9 km/h 7.4 mph /  11.9 km/h 77 % 0.0 in /  0 mm
20:56 20.1 °F /  -6.6 °C 16.2 °F /  -8.8 °C 1026.0 in /  34740.4 hPa SW 7.4 mph /  11.9 km/h 7.4 mph /  11.9 km/h 78 % 0.0 in /  0 mm
21:01 20.1 °F /  -6.6 °C 16.2 °F /  -8.8 °C 1026.0 in /  34740.4 hPa SW 5.6 mph /  9 km/h 5.6 mph /  9 km/h 78 % 0.0 in /  0 mm
21:06 20.0 °F /  -6.7 °C 16.1 °F /  -8.8 °C 1026.0 in /  34740.4 hPa WSW 7.4 mph /  11.9 km/h 7.4 mph /  11.9 km/h 78 % 0.0 in /  0 mm
21:11 20.0 °F /  -6.7 °C 16.1 °F /  -8.8 °C 1026.0 in /  34740.4 hPa SW 7.4 mph /  11.9 km/h 7.4 mph /  11.9 km/h 78 % 0.0 in /  0 mm
21:16 19.9 °F /  -6.7 °C 16.2 °F /  -8.8 °C 1026.0 in /  34740.4 hPa SSW 5.6 mph /  9 km/h 5.6 mph /  9 km/h 79 % 0.0 in /  0 mm
21:21 19.8 °F /  -6.8 °C 16.1 °F /  -8.8 °C 1026.0 in /  34740.4 hPa WSW 5.6 mph /  9 km/h 5.6 mph /  9 km/h 79 % 0.0 in /  0 mm
21:26 19.8 °F /  -6.8 °C 16.1 °F /  -8.8 °C 1026.0 in /  34740.4 hPa SW 3.9 mph /  6.3 km/h 3.9 mph /  6.3 km/h 79 % 0.0 in /  0 mm
21:31 19.7 °F /  -6.8 °C 16.2 °F /  -8.8 °C 1026.0 in /  34740.4 hPa SW 5.6 mph /  9 km/h 5.6 mph /  9 km/h 80 % 0.0 in /  0 mm
21:36 19.7 °F /  -6.8 °C 16.2 °F /  -8.8 °C 1026.0 in /  34740.4 hPa SW 5.0 mph /  8 km/h 5.0 mph /  8 km/h 80 % 0.0 in /  0 mm
21:41 19.7 °F /  -6.8 °C 16.2 °F /  -8.8 °C 1026.0 in /  34740.4 hPa West 5.6 mph /  9 km/h 5.6 mph /  9 km/h 80 % 0.0 in /  0 mm
21:46 19.6 °F /  -6.9 °C 16.2 °F /  -8.8 °C 1027.0 in /  34774.2 hPa WSW 3.7 mph /  6 km/h 3.7 mph /  6 km/h 81 % 0.0 in /  0 mm
21:51 19.6 °F /  -6.9 °C 16.2 °F /  -8.8 °C 1027.0 in /  34774.2 hPa SW 1.9 mph /  3.1 km/h   81 % 0.0 in /  0 mm
21:56 19.5 °F /  -6.9 °C 16.3 °F /  -8.7 °C 1027.0 in /  34774.2 hPa West 1.9 mph /  3.1 km/h 1.9 mph /  3.1 km/h 82 % 0.0 in /  0 mm
22:01 19.5 °F /  -6.9 °C 16.3 °F /  -8.7 °C 1026.0 in /  34740.4 hPa SW 3.2 mph /  5.1 km/h   82 % 0.0 in /  0 mm
22:06 19.5 °F /  -6.9 °C 16.3 °F /  -8.7 °C 1026.0 in /  34740.4 hPa WSW 1.9 mph /  3.1 km/h   82 % 0.0 in /  0 mm
22:11 19.4 °F /  -7 °C 16.2 °F /  -8.8 °C 1026.0 in /  34740.4 hPa WSW 1.9 mph /  3.1 km/h 1.9 mph /  3.1 km/h 82 % 0.0 in /  0 mm
22:16 19.4 °F /  -7 °C 16.2 °F /  -8.8 °C 1026.0 in /  34740.4 hPa West 3.7 mph /  6 km/h 3.7 mph /  6 km/h 82 % 0.0 in /  0 mm
22:21 19.4 °F /  -7 °C 16.2 °F /  -8.8 °C 1026.0 in /  34740.4 hPa West 1.9 mph /  3.1 km/h 1.9 mph /  3.1 km/h 82 % 0.0 in /  0 mm
22:26 19.3 °F /  -7.1 °C 16.3 °F /  -8.7 °C 1026.0 in /  34740.4 hPa West 3.7 mph /  6 km/h 3.7 mph /  6 km/h 83 % 0.0 in /  0 mm
22:31 19.3 °F /  -7.1 °C 16.3 °F /  -8.7 °C 1026.0 in /  34740.4 hPa WSW 1.9 mph /  3.1 km/h 1.9 mph /  3.1 km/h 83 % 0.0 in /  0 mm
22:36 19.2 °F /  -7.1 °C 16.2 °F /  -8.8 °C 1026.0 in /  34740.4 hPa WSW 1.9 mph /  3.1 km/h 1.9 mph /  3.1 km/h 83 % 0.0 in /  0 mm
22:41 19.2 °F /  -7.1 °C 16.2 °F /  -8.8 °C 1026.0 in /  34740.4 hPa WSW 3.7 mph /  6 km/h 3.7 mph /  6 km/h 83 % 0.0 in /  0 mm
22:46 19.2 °F /  -7.1 °C 16.2 °F /  -8.8 °C 1026.0 in /  34740.4 hPa WSW 2.6 mph /  4.2 km/h   83 % 0.0 in /  0 mm
22:51 19.1 °F /  -7.2 °C 16.2 °F /  -8.8 °C 1026.0 in /  34740.4 hPa WSW 3.7 mph /  6 km/h 3.7 mph /  6 km/h 83 % 0.0 in /  0 mm
22:56 19.1 °F /  -7.2 °C 16.3 °F /  -8.7 °C 1026.0 in /  34740.4 hPa SW 1.9 mph /  3.1 km/h   84 % 0.0 in /  0 mm
23:01 19.0 °F /  -7.2 °C 16.2 °F /  -8.8 °C 1026.0 in /  34740.4 hPa Calm     84 % 0.0 in /  0 mm
23:06 19.0 °F /  -7.2 °C 16.2 °F /  -8.8 °C 1026.0 in /  34740.4 hPa WSW 1.9 mph /  3.1 km/h 1.9 mph /  3.1 km/h 84 % 0.0 in /  0 mm
23:11 19.1 °F /  -7.2 °C 16.3 °F /  -8.7 °C 1026.0 in /  34740.4 hPa West 1.9 mph /  3.1 km/h 2.3 mph /  3.7 km/h 84 % 0.0 in /  0 mm
23:16 19.0 °F /  -7.2 °C 16.2 °F /  -8.8 °C 1026.0 in /  34740.4 hPa West 3.7 mph /  6 km/h 3.7 mph /  6 km/h 84 % 0.0 in /  0 mm
23:21 19.0 °F /  -7.2 °C 16.2 °F /  -8.8 °C 1026.0 in /  34740.4 hPa WSW 3.7 mph /  6 km/h 3.7 mph /  6 km/h 84 % 0.0 in /  0 mm
23:26 19.0 °F /  -7.2 °C 16.2 °F /  -8.8 °C 1026.0 in /  34740.4 hPa WSW 3.7 mph /  6 km/h 3.7 mph /  6 km/h 84 % 0.0 in /  0 mm
23:31 19.0 °F /  -7.2 °C 16.2 °F /  -8.8 °C 1026.0 in /  34740.4 hPa West 3.7 mph /  6 km/h 3.7 mph /  6 km/h 84 % 0.0 in /  0 mm
23:36 19.0 °F /  -7.2 °C 16.2 °F /  -8.8 °C 1026.0 in /  34740.4 hPa SW 3.7 mph /  6 km/h 3.7 mph /  6 km/h 84 % 0.0 in /  0 mm
23:41 19.0 °F /  -7.2 °C 16.4 °F /  -8.7 °C 1026.0 in /  34740.4 hPa West 1.9 mph /  3.1 km/h 2.3 mph /  3.7 km/h 85 % 0.0 in /  0 mm
23:46 19.0 °F /  -7.2 °C 16.4 °F /  -8.7 °C 1026.0 in /  34740.4 hPa West 5.6 mph /  9 km/h 5.6 mph /  9 km/h 85 % 0.0 in /  0 mm
23:51 19.0 °F /  -7.2 °C 16.4 °F /  -8.7 °C 1026.0 in /  34740.4 hPa West 3.7 mph /  6 km/h 3.7 mph /  6 km/h 85 % 0.0 in /  0 mm
23:56 19.0 °F /  -7.2 °C 16.4 °F /  -8.7 °C 1026.0 in /  34740.4 hPa WSW 7.4 mph /  11.9 km/h 7.4 mph /  11.9 km/h 85 % 0.0 in /  0 mm
Meteo Sesrovires
Elogis d' Weather Underground - 2 mb

Guio original per  Jim McMurry - jmcmurry@mwt.net Adaptat per a la plantilla per  Wim van der Kuil - Leuven-Template.eu

Trobareu la nostra informacio del temps tambe a:

Weather Underground

AWEKAS